Time;durP1;ratioP1;P1;durP2;ratioP2;P2;SDS_P1;SDS_P2;PMS_P1;PMS_P2;Temp;Humidity;BMP_temperature;BMP_pressure;BME280_temperature;BME280_humidity;BME280_pressure;Samples;Min_cycle;Max_cycle;Signal;HPM_P1;HPM_P2
2022/07/10 00:00:09;;;;;;;5.05;1.70;;;;;;;13.08;90.53;101850.75;688938;28;955;-44
2022/07/10 00:00:33;;;;;;;5.43;1.45;;;;;;;13.07;92.09;101839.41;690408;28;4568;-42
2022/07/10 00:00:53;;;;;;;6.23;1.67;;;;;;;13.05;91.93;101845.50;690431;28;1415;-46
2022/07/10 00:01:14;;;;;;;6.30;1.80;;;;;;;13.05;91.48;101838.50;689909;28;1377;-42
2022/07/10 00:01:34;;;;;;;7.97;2.00;;;;;;;13.05;91.71;101846.38;690620;28;1384;-42
2022/07/10 00:01:54;;;;;;;7.10;1.90;;;;;;;13.04;91.09;101835.88;692081;28;1306;-43
2022/07/10 00:02:15;;;;;;;4.40;1.60;;;;;;;13.04;91.31;101846.38;692603;28;1402;-42
2022/07/10 00:02:35;;;;;;;4.32;1.40;;;;;;;13.00;92.17;101840.25;692690;28;1492;-42
2022/07/10 00:02:56;;;;;;;4.20;1.43;;;;;;;12.97;91.74;101834.97;692644;28;1340;-42
2022/07/10 00:03:17;;;;;;;4.43;1.70;;;;;;;12.97;91.71;101842.84;692096;28;4452;-42
2022/07/10 00:03:37;;;;;;;5.28;1.70;;;;;;;12.98;91.90;101841.97;693212;28;1341;-42
2022/07/10 00:03:58;;;;;;;4.17;1.60;;;;;;;12.96;91.58;101838.50;690388;28;1332;-42
2022/07/10 00:04:21;;;;;;;5.15;1.48;;;;;;;12.92;91.38;101837.59;691059;28;1577;-41
2022/07/10 00:04:42;;;;;;;3.97;1.40;;;;;;;12.92;91.63;101842.84;690459;28;1376;-42
2022/07/10 00:05:03;;;;;;;3.25;1.50;;;;;;;12.93;92.57;101838.44;690228;28;1363;-42
2022/07/10 00:05:25;;;;;;;5.47;1.65;;;;;;;12.95;91.67;101842.84;690558;28;1234;-42
2022/07/10 00:05:45;;;;;;;5.53;1.58;;;;;;;12.94;92.12;101835.88;690102;28;1345;-42
2022/07/10 00:06:07;;;;;;;5.65;1.70;;;;;;;12.93;91.61;101838.44;688077;28;1389;-42
2022/07/10 00:06:27;;;;;;;4.18;1.63;;;;;;;12.93;91.33;101827.94;685871;28;4383;-43
2022/07/10 00:06:47;;;;;;;5.27;1.70;;;;;;;12.94;92.75;101840.22;689157;28;1302;-43
2022/07/10 00:07:08;;;;;;;6.95;1.50;;;;;;;12.92;91.85;101832.34;687828;28;1282;-43
2022/07/10 00:07:28;;;;;;;6.40;1.40;;;;;;;12.92;91.44;101837.59;690360;28;1456;-43
2022/07/10 00:07:49;;;;;;;4.07;1.40;;;;;;;12.94;90.96;101835.88;691316;28;1306;-43
2022/07/10 00:08:09;;;;;;;4.50;1.50;;;;;;;12.94;92.02;101838.50;689019;28;1854;-42
2022/07/10 00:08:30;;;;;;;5.50;1.70;;;;;;;12.93;92.36;101836.72;690693;28;1469;-44
2022/07/10 00:08:50;;;;;;;5.40;1.70;;;;;;;12.95;92.33;101831.47;691141;28;1178;-43
2022/07/10 00:09:10;;;;;;;5.15;1.67;;;;;;;12.94;91.72;101835.88;690021;28;1341;-42
2022/07/10 00:09:31;;;;;;;3.20;1.40;;;;;;;12.94;91.88;101840.22;690580;28;4304;-42
2022/07/10 00:09:51;;;;;;;4.95;1.60;;;;;;;12.94;91.60;101840.22;691382;28;1004;-42
2022/07/10 00:10:11;;;;;;;6.00;1.63;;;;;;;12.92;91.64;101842.84;691173;28;1435;-42
2022/07/10 00:10:33;;;;;;;5.60;1.80;;;;;;;12.93;90.97;101838.44;690854;28;1316;-43
2022/07/10 00:10:53;;;;;;;5.32;1.65;;;;;;;12.92;91.93;101837.59;690198;28;1130;-44
2022/07/10 00:11:14;;;;;;;5.37;1.60;;;;;;;12.97;92.38;101839.34;693474;28;864;-42
2022/07/10 00:11:34;;;;;;;5.07;1.52;;;;;;;12.95;92.64;101834.09;692775;28;1158;-42
2022/07/10 00:11:54;;;;;;;5.67;1.70;;;;;;;12.98;92.37;101835.88;692741;28;1119;-42
2022/07/10 00:12:15;;;;;;;6.65;1.70;;;;;;;12.95;91.92;101840.22;689731;28;4409;-44
2022/07/10 00:12:35;;;;;;;4.73;1.70;;;;;;;12.91;92.25;101840.22;689876;28;1356;-44
2022/07/10 00:12:56;;;;;;;5.30;1.77;;;;;;;12.89;91.60;101836.69;690730;28;1198;-42
2022/07/10 00:13:17;;;;;;;3.92;1.65;;;;;;;12.87;92.19;101834.06;689913;28;1131;-43
2022/07/10 00:13:37;;;;;;;2.80;1.50;;;;;;;12.86;91.66;101839.31;690451;28;1165;-43
2022/07/10 00:13:58;;;;;;;4.45;1.60;;;;;;;12.83;92.09;101837.53;690667;28;1237;-43
2022/07/10 00:14:19;;;;;;;5.03;1.63;;;;;;;12.82;92.37;101840.16;689964;28;1201;-43
2022/07/10 00:14:40;;;;;;;4.28;1.50;;;;;;;12.83;92.18;101836.66;690396;28;1157;-43
2022/07/10 00:15:01;;;;;;;5.18;1.70;;;;;;;12.79;92.88;101838.38;690961;28;1115;-43
2022/07/10 00:15:22;;;;;;;5.88;1.67;;;;;;;12.80;93.09;101842.78;688884;28;4915;-42
2022/07/10 00:15:42;;;;;;;5.50;1.40;;;;;;;12.79;92.67;101838.38;690564;28;1231;-44
2022/07/10 00:16:02;;;;;;;2.83;1.30;;;;;;;12.79;92.16;101838.38;690236;28;1110;-43
2022/07/10 00:16:24;;;;;;;4.53;1.60;;;;;;;12.79;92.19;101841.00;688072;28;1299;-43
2022/07/10 00:16:44;;;;;;;4.03;1.45;;;;;;;12.82;91.70;101838.44;690072;28;1111;-42
2022/07/10 00:17:05;;;;;;;4.87;1.60;;;;;;;12.80;91.63;101839.28;690060;28;1170;-42
2022/07/10 00:17:25;;;;;;;6.07;1.73;;;;;;;12.77;91.95;101843.63;692420;28;1206;-43
2022/07/10 00:17:45;;;;;;;4.70;1.60;;;;;;;12.72;92.40;101844.47;692794;28;1626;-43
2022/07/10 00:18:06;;;;;;;4.73;1.60;;;;;;;12.70;92.37;101841.84;692537;28;1198;-44
2022/07/10 00:18:26;;;;;;;4.25;1.55;;;;;;;12.70;92.04;101849.72;691340;28;4241;-42
2022/07/10 00:18:47;;;;;;;4.10;1.57;;;;;;;12.73;91.82;101843.63;691411;28;1183;-45
2022/07/10 00:19:07;;;;;;;4.43;1.60;;;;;;;12.76;92.71;101847.13;691893;28;1969;-42
2022/07/10 00:19:27;;;;;;;6.70;1.70;;;;;;;12.78;92.37;101841.91;692692;28;1409;-43
2022/07/10 00:19:48;;;;;;;7.68;1.60;;;;;;;12.79;92.74;101838.38;693475;28;1135;-43
2022/07/10 00:20:09;;;;;;;6.67;1.70;;;;;;;12.78;92.66;101847.16;692697;28;1179;-44
2022/07/10 00:20:30;;;;;;;5.22;1.60;;;;;;;12.77;92.89;101845.41;693225;28;1162;-43
2022/07/10 00:20:50;;;;;;;4.90;1.83;;;;;;;12.80;92.41;101834.91;692536;28;1155;-43
2022/07/10 00:21:11;;;;;;;3.45;1.52;;;;;;;12.77;92.25;101846.25;690857;28;1282;-42
2022/07/10 00:21:31;;;;;;;3.20;1.47;;;;;;;12.80;92.12;101834.91;690501;28;4348;-42
2022/07/10 00:21:51;;;;;;;4.55;1.80;;;;;;;12.79;93.03;101835.75;690579;28;1209;-42
2022/07/10 00:22:12;;;;;;;4.77;1.70;;;;;;;12.77;92.97;101841.00;689550;28;1210;-42
2022/07/10 00:22:34;;;;;;;3.67;1.60;;;;;;;12.77;92.96;101833.13;689148;28;2180;-43
2022/07/10 00:22:55;;;;;;;4.55;1.50;;;;;;;12.78;93.17;101841.91;690531;28;1242;-44
2022/07/10 00:23:15;;;;;;;3.77;1.40;;;;;;;12.83;92.77;101836.66;689118;28;1213;-42
2022/07/10 00:23:35;;;;;;;4.55;1.58;;;;;;;12.80;92.89;101837.53;690583;28;1543;-42
2022/07/10 00:23:55;;;;;;;5.43;1.70;;;;;;;12.79;92.57;101838.38;690279;28;1326;-42
2022/07/10 00:24:16;;;;;;;4.10;1.67;;;;;;;12.79;91.97;101835.75;689457;28;4430;-42
2022/07/10 00:24:36;;;;;;;6.25;1.80;;;;;;;12.77;91.88;101841.00;690556;28;1404;-42
2022/07/10 00:24:57;;;;;;;4.73;1.50;;;;;;;12.79;92.08;101835.75;690861;28;1251;-42
2022/07/10 00:25:17;;;;;;;5.57;1.60;;;;;;;12.76;92.54;101835.75;690608;28;1455;-42
2022/07/10 00:25:37;;;;;;;5.57;1.77;;;;;;;12.77;92.29;101833.13;691511;28;1146;-43
2022/07/10 00:25:58;;;;;;;3.63;1.53;;;;;;;12.74;92.82;101840.13;692955;28;1439;-43
2022/07/10 00:26:18;;;;;;;5.83;1.60;;;;;;;12.73;92.72;101835.75;693186;28;1308;-43
2022/07/10 00:26:38;;;;;;;5.67;1.70;;;;;;;12.72;93.16;101834.88;693559;28;1544;-42
2022/07/10 00:26:59;;;;;;;5.15;1.90;;;;;;;12.76;92.77;101838.38;692739;28;1584;-43
2022/07/10 00:27:19;;;;;;;6.13;1.90;;;;;;;12.74;93.33;101842.75;692402;28;4499;-42
2022/07/10 00:27:41;;;;;;;5.37;1.70;;;;;;;12.72;92.78;101837.50;693161;28;1590;-44
2022/07/10 00:28:01;;;;;;;6.03;1.75;;;;;;;12.69;92.72;101841.84;691438;28;1123;-45
2022/07/10 00:28:23;;;;;;;5.35;1.70;;;;;;;12.67;92.66;101841.84;690135;28;1202;-43
2022/07/10 00:28:43;;;;;;;6.20;1.70;;;;;;;12.65;92.73;101838.31;690724;28;1205;-43
2022/07/10 00:29:03;;;;;;;5.07;1.65;;;;;;;12.66;93.74;101834.84;690094;28;1211;-42
2022/07/10 00:29:24;;;;;;;5.60;1.80;;;;;;;12.66;93.24;101840.09;690813;28;1147;-43
2022/07/10 00:29:45;;;;;;;6.30;1.63;;;;;;;12.70;93.75;101836.59;690714;28;1167;-42
2022/07/10 00:30:06;;;;;;;6.35;1.67;;;;;;;12.71;93.09;101841.00;689967;28;1186;-42
2022/07/10 00:30:27;;;;;;;4.25;1.70;;;;;;;12.73;93.02;101841.00;691994;28;4444;-42
2022/07/10 00:30:47;;;;;;;5.33;1.60;;;;;;;12.74;92.91;101837.50;693064;28;1115;-44
2022/07/10 00:31:10;;;;;;;5.53;1.40;;;;;;;12.73;93.10;101843.63;690655;28;1333;-43
2022/07/10 00:31:30;;;;;;;5.57;1.60;;;;;;;12.73;92.52;101838.38;690150;28;1606;-43
2022/07/10 00:31:51;;;;;;;5.97;1.60;;;;;;;12.75;92.43;101844.50;690606;28;1211;-42
2022/07/10 00:32:11;;;;;;;4.40;1.60;;;;;;;12.74;91.98;101840.13;689924;28;1373;-43
2022/07/10 00:32:32;;;;;;;4.43;1.40;;;;;;;12.74;92.24;101841.00;690848;28;1247;-42
2022/07/10 00:32:53;;;;;;;5.22;1.67;;;;;;;12.75;92.03;101841.88;690643;28;1187;-43
2022/07/10 00:33:14;;;;;;;5.00;1.70;;;;;;;12.75;92.45;101839.25;689503;28;1289;-43
2022/07/10 00:33:34;;;;;;;4.32;1.48;;;;;;;12.71;92.37;101837.47;684415;28;4556;-43
2022/07/10 00:33:54;;;;;;;5.20;1.43;;;;;;;12.72;93.05;101839.25;685268;28;1274;-43
2022/07/10 00:34:15;;;;;;;5.37;1.60;;;;;;;12.74;92.58;101842.75;687384;28;1396;-42
2022/07/10 00:34:35;;;;;;;6.63;1.77;;;;;;;12.75;92.48;101844.50;687767;28;1473;-44
2022/07/10 00:34:55;;;;;;;5.70;1.50;;;;;;;12.72;92.57;101841.88;687488;28;1037;-42
2022/07/10 00:35:16;;;;;;;5.35;1.50;;;;;;;12.73;92.38;101841.00;687711;28;1365;-43
2022/07/10 00:35:36;;;;;;;4.67;1.57;;;;;;;12.73;91.23;101846.25;692612;28;1398;-42
2022/07/10 00:35:57;;;;;;;4.90;1.60;;;;;;;12.72;91.77;101841.88;691018;28;1572;-42
2022/07/10 00:36:17;;;;;;;4.50;1.67;;;;;;;12.72;92.00;101844.47;689830;28;4936;-43
2022/07/10 00:36:40;;;;;;;4.20;1.60;;;;;;;12.68;92.08;101843.59;689698;28;1667;-43
2022/07/10 00:37:02;;;;;;;4.07;1.50;;;;;;;12.61;92.25;101852.28;688057;28;1373;-42
2022/07/10 00:37:22;;;;;;;3.65;1.30;;;;;;;12.59;92.30;101844.41;688608;28;1128;-42
2022/07/10 00:37:43;;;;;;;4.53;1.50;;;;;;;12.58;92.65;101847.03;684264;28;1236;-42
2022/07/10 00:38:03;;;;;;;4.60;1.50;;;;;;;12.59;92.64;101844.41;684890;28;1195;-42
2022/07/10 00:38:24;;;;;;;3.83;1.63;;;;;;;12.59;92.28;101844.41;685031;28;1426;-43
2022/07/10 00:38:45;;;;;;;4.22;1.50;;;;;;;12.62;92.64;101853.19;687978;28;1188;-42
2022/07/10 00:39:06;;;;;;;5.97;1.60;;;;;;;12.58;92.71;101845.28;689683;28;1914;-42
2022/07/10 00:39:26;;;;;;;5.70;1.60;;;;;;;12.62;92.75;101851.44;689480;28;4484;-42
2022/07/10 00:39:47;;;;;;;4.43;1.40;;;;;;;12.64;93.09;101846.19;690719;28;1346;-44
2022/07/10 00:40:08;;;;;;;4.75;1.50;;;;;;;12.63;92.67;101852.28;690352;28;1151;-42
2022/07/10 00:40:28;;;;;;;5.10;1.50;;;;;;;12.62;93.46;101842.69;687683;28;1437;-42
2022/07/10 00:40:49;;;;;;;5.17;1.33;;;;;;;12.62;93.33;101848.81;687401;28;1285;-42
2022/07/10 00:41:09;;;;;;;4.95;1.50;;;;;;;12.59;93.67;101847.03;687724;28;1293;-42
2022/07/10 00:41:30;;;;;;;6.07;1.70;;;;;;;12.61;93.55;101847.03;687576;28;1325;-42
2022/07/10 00:41:51;;;;;;;4.53;1.60;;;;;;;12.58;93.54;101849.66;691140;28;1329;-42
2022/07/10 00:42:13;;;;;;;4.65;1.50;;;;;;;12.55;92.95;101842.63;689778;28;1286;-42
2022/07/10 00:42:33;;;;;;;4.40;1.50;;;;;;;12.59;93.14;101847.03;689473;28;4339;-43
2022/07/10 00:42:54;;;;;;;3.97;1.48;;;;;;;12.63;93.31;101839.19;690316;28;1393;-43
2022/07/10 00:43:14;;;;;;;4.23;1.60;;;;;;;12.61;93.27;101844.41;692225;28;934;-43
2022/07/10 00:43:54;;;;;;;3.83;1.50;;;;;;;12.59;93.26;101844.41;691353;28;1403;-42
2022/07/10 00:44:15;;;;;;;4.82;1.63;;;;;;;12.62;93.73;101845.31;692392;28;1313;-48
2022/07/10 00:44:35;;;;;;;4.63;1.60;;;;;;;12.66;93.75;101847.09;693040;28;1424;-42
2022/07/10 00:44:56;;;;;;;4.93;1.70;;;;;;;12.63;93.56;101849.66;692713;28;1404;-42
2022/07/10 00:45:16;;;;;;;5.60;1.50;;;;;;;12.60;93.86;101840.06;690371;28;5595;-42
2022/07/10 00:45:36;;;;;;;5.18;1.55;;;;;;;12.60;93.82;101848.81;690510;28;1503;-42
2022/07/10 00:45:57;;;;;;;4.07;1.40;;;;;;;12.69;93.21;101847.09;690857;28;1491;-42
2022/07/10 00:46:20;;;;;;;4.73;1.50;;;;;;;12.76;92.11;101852.38;690199;28;1360;-42
2022/07/10 00:46:40;;;;;;;4.47;1.50;;;;;;;12.78;91.97;101839.28;690516;28;1265;-42
2022/07/10 00:47:01;;;;;;;3.93;1.40;;;;;;;12.76;92.88;101846.25;690531;28;1248;-42
2022/07/10 00:47:22;;;;;;;3.30;1.40;;;;;;;12.73;92.83;101843.63;690631;28;1170;-43
2022/07/10 00:47:42;;;;;;;3.70;1.52;;;;;;;12.71;92.19;101845.34;690859;28;1241;-42
2022/07/10 00:48:03;;;;;;;5.80;1.70;;;;;;;12.69;92.43;101839.22;689735;28;1575;-46
2022/07/10 00:48:23;;;;;;;7.40;1.67;;;;;;;12.67;92.33;101841.84;691609;28;4307;-42
2022/07/10 00:48:44;;;;;;;6.90;1.80;;;;;;;12.65;92.41;101842.69;692581;28;1244;-42
2022/07/10 00:49:04;;;;;;;4.35;1.60;;;;;;;12.62;92.43;101843.56;692831;28;1265;-42
2022/07/10 00:49:24;;;;;;;4.27;1.60;;;;;;;12.61;92.95;101839.16;692965;28;1289;-42
2022/07/10 00:49:46;;;;;;;5.03;1.70;;;;;;;12.62;93.30;101838.31;693091;28;1404;-43
2022/07/10 00:50:07;;;;;;;4.28;1.50;;;;;;;12.63;92.65;101834.84;691843;28;1447;-42
2022/07/10 00:50:28;;;;;;;4.28;1.60;;;;;;;12.64;93.42;101840.94;690631;28;1158;-42
2022/07/10 00:50:49;;;;;;;3.78;1.52;;;;;;;12.62;93.38;101835.69;690243;28;1251;-42
2022/07/10 00:51:10;;;;;;;5.30;1.50;;;;;;;12.60;94.13;101840.94;692880;28;1138;-44
2022/07/10 00:51:30;;;;;;;4.37;1.63;;;;;;;12.64;93.68;101839.22;692994;28;4434;-42
2022/07/10 00:51:52;;;;;;;6.05;1.80;;;;;;;12.64;93.44;101835.69;693053;28;1207;-42
2022/07/10 00:52:14;;;;;;;6.30;1.60;;;;;;;12.63;93.42;101834.84;692435;28;1385;-42
2022/07/10 00:52:38;;;;;;;6.57;1.90;;;;;;;12.66;93.55;101839.22;693111;28;1357;-43
2022/07/10 00:52:59;;;;;;;4.38;1.50;;;;;;;12.64;93.06;101841.84;693065;28;1399;-43
2022/07/10 00:53:20;;;;;;;4.90;1.58;;;;;;;12.62;92.77;101843.56;689882;28;1476;-43
2022/07/10 00:53:41;;;;;;;3.90;1.40;;;;;;;12.59;92.85;101836.53;690890;28;1352;-42
2022/07/10 00:54:01;;;;;;;4.38;1.40;;;;;;;12.56;93.98;101836.53;690026;28;1167;-42
2022/07/10 00:54:22;;;;;;;4.63;1.63;;;;;;;12.58;93.36;101837.41;689351;28;4391;-44
2022/07/10 00:54:45;;;;;;;4.22;1.55;;;;;;;12.53;93.47;101844.41;690340;28;3640;-42
2022/07/10 00:55:08;;;;;;;6.28;1.75;;;;;;;12.54;93.58;101838.25;690086;28;1218;-42
2022/07/10 00:55:30;;;;;;;5.05;1.65;;;;;;;12.50;93.34;101841.75;692977;28;1206;-42
2022/07/10 00:55:50;;;;;;;4.68;1.50;;;;;;;12.49;93.51;101844.34;692005;28;1284;-42
2022/07/10 00:56:12;;;;;;;4.70;1.60;;;;;;;12.48;93.61;101840.00;690036;28;1274;-42
2022/07/10 00:56:32;;;;;;;4.88;1.50;;;;;;;12.48;93.94;101842.63;690800;28;1269;-44
2022/07/10 00:56:53;;;;;;;5.47;1.50;;;;;;;12.52;93.58;101836.53;690546;28;1395;-42
2022/07/10 00:57:15;;;;;;;4.50;1.40;;;;;;;12.50;94.36;101846.09;690095;28;1420;-42
2022/07/10 00:57:37;;;;;;;4.65;1.55;;;;;;;12.47;94.46;101839.09;687844;28;4744;-43
2022/07/10 00:57:59;;;;;;;6.60;1.60;;;;;;;12.47;94.71;101844.34;686783;28;2235;-44
2022/07/10 00:58:19;;;;;;;4.68;1.50;;;;;;;12.47;94.15;101848.72;688596;28;1487;-44
2022/07/10 00:58:40;;;;;;;5.27;1.50;;;;;;;12.47;94.63;101849.59;690125;28;1658;-42
2022/07/10 00:59:01;;;;;;;6.35;1.70;;;;;;;12.47;95.22;101841.72;690349;28;1288;-43
2022/07/10 00:59:22;;;;;;;4.70;1.60;;;;;;;12.49;94.73;101842.63;690121;28;1914;-43
2022/07/10 00:59:44;;;;;;;3.25;1.40;;;;;;;12.50;93.91;101839.13;692687;28;1304;-43
2022/07/10 01:00:05;;;;;;;6.30;1.70;;;;;;;12.52;93.69;101836.53;691979;28;1270;-43
2022/07/10 01:00:26;;;;;;;6.05;1.80;;;;;;;12.46;94.48;101832.13;692450;28;4536;-43
2022/07/10 01:00:47;;;;;;;4.60;1.70;;;;;;;12.46;93.98;101826.88;693343;28;1618;-43
2022/07/10 01:01:07;;;;;;;4.88;1.65;;;;;;;12.44;94.57;101839.09;690602;28;1230;-43
2022/07/10 01:01:28;;;;;;;4.77;1.60;;;;;;;12.42;94.98;101833.84;687110;28;1579;-45
2022/07/10 01:01:50;;;;;;;4.72;1.60;;;;;;;12.43;94.48;101829.44;688052;28;1330;-42
2022/07/10 01:02:14;;;;;;;4.13;1.55;;;;;;;12.42;93.93;101830.34;687464;28;1129;-43
2022/07/10 01:02:34;;;;;;;4.70;1.60;;;;;;;12.40;95.49;101835.53;687387;28;1068;-43
2022/07/10 01:02:55;;;;;;;6.20;1.70;;;;;;;12.44;95.04;101833.84;688352;28;1512;-42
2022/07/10 01:03:16;;;;;;;6.00;1.80;;;;;;;12.43;95.10;101829.44;690560;28;4375;-43
2022/07/10 01:03:36;;;;;;;4.57;1.60;;;;;;;12.42;94.52;101830.34;689945;28;1468;-43
2022/07/10 01:03:57;;;;;;;4.35;1.55;;;;;;;12.40;94.85;101827.69;690881;28;1326;-43
2022/07/10 01:04:18;;;;;;;3.80;1.60;;;;;;;12.38;94.69;101831.19;689619;28;1213;-43
2022/07/10 01:04:38;;;;;;;4.35;1.60;;;;;;;12.37;94.69;101824.19;687520;28;1488;-45
2022/07/10 01:04:59;;;;;;;4.85;1.55;;;;;;;12.34;95.26;101832.03;684520;28;1501;-45
2022/07/10 01:05:20;;;;;;;4.10;1.50;;;;;;;12.36;94.71;101830.28;684923;28;1716;-43
2022/07/10 01:05:40;;;;;;;4.95;1.60;;;;;;;12.35;95.32;101831.16;687308;28;1808;-52
2022/07/10 01:06:00;;;;;;;3.63;1.60;;;;;;;12.33;95.50;101830.28;687757;28;1301;-43
2022/07/10 01:06:21;;;;;;;4.47;1.60;;;;;;;12.27;95.21;101821.50;686635;28;4732;-44
2022/07/10 01:06:41;;;;;;;4.60;1.70;;;;;;;12.27;94.91;101826.72;687575;28;1163;-43
2022/07/10 01:07:02;;;;;;;5.20;1.77;;;;;;;12.28;94.96;101827.63;689950;28;1368;-43
2022/07/10 01:07:22;;;;;;;4.57;1.57;;;;;;;12.26;95.58;101824.09;690191;28;1214;-42
2022/07/10 01:07:42;;;;;;;3.88;1.70;;;;;;;12.27;95.89;101826.72;690025;28;1187;-42
2022/07/10 01:08:03;;;;;;;4.20;1.70;;;;;;;12.31;94.66;101830.25;690129;28;1242;-43
2022/07/10 01:08:24;;;;;;;6.37;2.10;;;;;;;12.29;95.73;101826.75;690517;28;1254;-43
2022/07/10 01:08:45;;;;;;;4.93;1.90;;;;;;;12.27;96.13;101829.34;690707;28;1317;-43
2022/07/10 01:09:06;;;;;;;3.88;1.60;;;;;;;12.28;95.90;101827.63;690043;28;1417;-43
2022/07/10 01:09:30;;;;;;;4.03;1.60;;;;;;;12.24;95.78;101824.09;687829;28;4370;-42
2022/07/10 01:09:51;;;;;;;5.95;1.65;;;;;;;12.24;95.91;101823.22;687569;28;2289;-43
2022/07/10 01:10:11;;;;;;;5.22;1.52;;;;;;;12.25;96.16;101827.59;685185;28;1388;-43
2022/07/10 01:10:32;;;;;;;4.77;1.40;;;;;;;12.27;95.37;101825.88;685800;28;1217;-44
2022/07/10 01:10:53;;;;;;;5.07;1.70;;;;;;;12.29;95.74;101824.13;687873;28;1243;-43
2022/07/10 01:11:15;;;;;;;4.95;1.83;;;;;;;12.25;96.42;101820.63;687225;28;1416;-43
2022/07/10 01:11:37;;;;;;;4.65;1.70;;;;;;;12.29;96.37;101818.88;687646;28;1157;-43
2022/07/10 01:12:00;;;;;;;5.00;1.80;;;;;;;12.29;95.99;101823.25;688295;28;1558;-44
2022/07/10 01:12:21;;;;;;;4.85;1.70;;;;;;;12.27;96.72;101820.63;686334;28;4554;-43
2022/07/10 01:12:42;;;;;;;5.22;1.60;;;;;;;12.24;96.05;101826.72;687497;28;1242;-45
2022/07/10 01:13:03;;;;;;;4.70;1.50;;;;;;;12.26;95.33;101817.09;686638;28;1367;-45
2022/07/10 01:13:24;;;;;;;5.93;1.70;;;;;;;12.25;95.80;101822.34;687176;28;1242;-44
2022/07/10 01:13:44;;;;;;;3.83;1.65;;;;;;;12.23;95.97;101814.47;688340;28;1452;-43
2022/07/10 01:14:05;;;;;;;5.60;1.70;;;;;;;12.22;95.43;101817.94;689797;28;1223;-45
2022/07/10 01:14:25;;;;;;;6.27;1.80;;;;;;;12.26;95.33;101819.72;689837;28;1119;-43
2022/07/10 01:14:46;;;;;;;4.80;1.70;;;;;;;12.33;94.95;101818.03;690208;28;1249;-43
2022/07/10 01:15:07;;;;;;;5.57;2.00;;;;;;;12.31;95.10;101818.88;690242;28;1234;-43
2022/07/10 01:15:28;;;;;;;5.00;1.77;;;;;;;12.30;94.82;101817.16;689287;28;4372;-42
2022/07/10 01:15:48;;;;;;;4.40;1.70;;;;;;;12.29;95.85;101820.63;692915;28;1225;-43
2022/07/10 01:16:10;;;;;;;4.97;1.67;;;;;;;12.28;95.54;101817.16;692150;28;1301;-42
2022/07/10 01:16:31;;;;;;;4.45;1.58;;;;;;;12.27;95.72;101816.25;690558;28;1356;-43
2022/07/10 01:16:53;;;;;;;4.22;1.52;;;;;;;12.26;95.89;101811.00;691220;28;1396;-45
2022/07/10 01:17:14;;;;;;;5.03;1.42;;;;;;;12.24;95.86;101818.84;689455;28;1339;-43
2022/07/10 01:17:35;;;;;;;4.75;1.50;;;;;;;12.25;96.28;101817.09;690455;28;1384;-43
2022/07/10 01:17:55;;;;;;;5.85;1.67;;;;;;;12.24;95.92;101818.84;690305;28;1504;-43
2022/07/10 01:18:16;;;;;;;4.75;1.77;;;;;;;12.25;95.79;101818.00;689026;28;4371;-43
2022/07/10 01:18:36;;;;;;;4.78;1.73;;;;;;;12.24;95.90;101816.22;689918;28;1535;-42
2022/07/10 01:18:57;;;;;;;5.73;1.70;;;;;;;12.23;95.74;101813.59;690247;28;1306;-42
2022/07/10 01:19:18;;;;;;;3.60;1.50;;;;;;;12.21;95.80;101810.97;690216;28;1918;-43
2022/07/10 01:19:38;;;;;;;4.78;1.50;;;;;;;12.21;95.80;101812.69;690490;28;1178;-44
2022/07/10 01:20:05;;;;;;;5.23;1.60;;;;;;;12.20;96.42;101819.69;690205;28;1512;-43
2022/07/10 01:20:31;;;;;;;5.57;1.50;;;;;;;12.22;96.26;101817.94;690621;28;1241;-43
2022/07/10 01:20:56;;;;;;;5.60;1.58;;;;;;;12.18;95.89;101816.19;689713;28;1329;-43
2022/07/10 01:21:29;;;;;;;4.18;1.70;;;;;;;12.19;95.99;101817.06;689241;28;4543;-42
2022/07/10 01:21:49;;;;;;;5.72;1.60;;;;;;;12.18;97.11;101816.19;689251;28;1294;-43
2022/07/10 01:22:10;;;;;;;7.03;1.80;;;;;;;12.20;96.14;101805.72;690352;28;1495;-43
2022/07/10 01:22:30;;;;;;;6.10;1.80;;;;;;;12.20;95.84;101809.22;690216;28;1297;-44
2022/07/10 01:22:50;;;;;;;4.07;1.42;;;;;;;12.17;96.29;101806.59;690149;28;1337;-43
2022/07/10 01:23:11;;;;;;;4.77;1.37;;;;;;;12.20;96.85;101803.09;691479;28;1480;-43
2022/07/10 01:23:31;;;;;;;4.93;1.50;;;;;;;12.18;96.92;101808.31;691747;28;1555;-43
2022/07/10 01:23:52;;;;;;;4.93;1.53;;;;;;;12.19;96.05;101812.69;693189;28;1301;-44
2022/07/10 01:24:12;;;;;;;4.85;1.40;;;;;;;12.21;96.29;101813.59;691743;28;1095;-43
2022/07/10 01:24:33;;;;;;;3.03;1.37;;;;;;;12.18;97.09;101799.59;689606;28;4405;-43
2022/07/10 01:24:54;;;;;;;3.95;1.40;;;;;;;12.14;97.42;101803.91;690935;28;1321;-42
2022/07/10 01:25:14;;;;;;;4.93;1.45;;;;;;;12.16;96.93;101809.19;690028;28;1369;-43
2022/07/10 01:25:35;;;;;;;4.90;1.50;;;;;;;12.11;97.15;101806.53;690017;28;1484;-43
2022/07/10 01:25:55;;;;;;;4.35;1.42;;;;;;;12.12;96.96;101803.03;690067;28;990;-43
2022/07/10 01:26:15;;;;;;;5.27;1.60;;;;;;;12.12;96.86;101805.66;689754;28;1401;-43
2022/07/10 01:26:37;;;;;;;4.67;1.57;;;;;;;12.12;96.79;101805.66;688059;28;1256;-43
2022/07/10 01:26:57;;;;;;;4.20;1.58;;;;;;;12.12;97.00;101810.91;691045;28;1532;-43
2022/07/10 01:27:18;;;;;;;3.30;1.50;;;;;;;12.14;97.39;101803.03;689446;28;4482;-42
2022/07/10 01:27:38;;;;;;;3.90;1.50;;;;;;;12.11;97.22;101801.28;689036;28;1460;-43
2022/07/10 01:27:58;;;;;;;4.47;1.60;;;;;;;12.13;97.26;101801.28;687254;28;1464;-43
2022/07/10 01:28:20;;;;;;;4.57;1.40;;;;;;;12.11;97.66;101803.91;687471;28;1353;-45
2022/07/10 01:28:41;;;;;;;4.82;1.50;;;;;;;12.11;97.70;101803.03;690108;28;1342;-43
2022/07/10 01:29:04;;;;;;;4.07;1.40;;;;;;;12.07;97.44;101800.41;689497;28;1101;-45
2022/07/10 01:29:25;;;;;;;4.53;1.45;;;;;;;12.12;96.80;101796.94;688956;28;1298;-45
2022/07/10 01:29:46;;;;;;;4.30;1.53;;;;;;;12.11;97.01;101803.03;688477;28;2173;-43
2022/07/10 01:30:07;;;;;;;6.57;1.70;;;;;;;12.08;97.41;101801.25;689902;28;1306;-43
2022/07/10 01:30:27;;;;;;;5.78;1.60;;;;;;;12.05;97.71;101804.72;689339;28;4673;-44
2022/07/10 01:30:49;;;;;;;6.47;1.70;;;;;;;12.05;97.71;101803.88;690458;28;1345;-42
2022/07/10 01:31:09;;;;;;;6.13;1.60;;;;;;;12.04;97.38;101799.50;687602;28;2028;-43
2022/07/10 01:31:29;;;;;;;4.15;1.42;;;;;;;12.05;97.04;101803.88;688134;28;1346;-44
2022/07/10 01:31:50;;;;;;;4.07;1.40;;;;;;;12.06;97.57;101795.16;690099;28;1301;-45
2022/07/10 01:32:10;;;;;;;4.20;1.52;;;;;;;12.04;97.43;101797.72;689794;28;1367;-43
2022/07/10 01:32:39;;;;;;;4.40;1.47;;;;;;;12.06;97.65;101800.38;687397;28;1404;-43
2022/07/10 01:32:59;;;;;;;5.70;1.42;;;;;;;12.07;97.06;101796.88;688696;28;1539;-42
2022/07/10 01:33:19;;;;;;;5.17;1.40;;;;;;;12.08;97.10;101793.41;689630;28;4552;-43
2022/07/10 01:33:40;;;;;;;5.07;1.40;;;;;;;12.06;96.98;101795.16;690275;28;1520;-42
2022/07/10 01:34:04;;;;;;;5.82;1.80;;;;;;;12.04;97.04;101797.72;690234;28;1198;-46
2022/07/10 01:34:24;;;;;;;6.43;1.90;;;;;;;12.03;96.63;101793.38;690021;28;1353;-43
2022/07/10 01:34:46;;;;;;;6.15;1.83;;;;;;;12.04;97.20;101791.63;689885;28;1317;-42
2022/07/10 01:35:08;;;;;;;5.28;1.70;;;;;;;12.03;97.67;101789.84;689913;28;1782;-43
2022/07/10 01:35:28;;;;;;;5.25;1.48;;;;;;;12.03;97.41;101797.72;690374;28;1341;-42
2022/07/10 01:35:48;;;;;;;5.07;1.50;;;;;;;12.02;98.11;101791.63;690234;28;1337;-44
2022/07/10 01:36:09;;;;;;;5.28;1.60;;;;;;;12.01;98.63;101791.59;690388;28;1386;-43
2022/07/10 01:36:29;;;;;;;4.07;1.60;;;;;;;12.01;97.82;101787.22;689727;28;4346;-43
2022/07/10 01:36:50;;;;;;;5.00;1.65;;;;;;;12.02;97.46;101791.63;690907;28;1222;-45
2022/07/10 01:37:10;;;;;;;5.43;1.50;;;;;;;12.03;97.59;101789.84;690048;28;1341;-44
2022/07/10 01:37:31;;;;;;;5.10;1.40;;;;;;;12.04;98.18;101791.63;690876;28;1324;-42
2022/07/10 01:37:51;;;;;;;4.90;1.47;;;;;;;12.03;98.07;101792.47;689945;28;1373;-43
2022/07/10 01:38:12;;;;;;;5.57;1.50;;;;;;;12.02;97.88;101790.75;689777;28;1357;-43
2022/07/10 01:38:32;;;;;;;5.20;1.67;;;;;;;12.02;97.68;101786.38;690541;28;1373;-42
2022/07/10 01:38:54;;;;;;;5.57;1.40;;;;;;;12.03;98.59;101787.25;690252;28;1408;-42
2022/07/10 01:39:14;;;;;;;5.72;1.70;;;;;;;11.98;98.93;101786.34;686908;28;1926;-43
2022/07/10 01:39:34;;;;;;;4.07;1.67;;;;;;;11.97;99.06;101787.22;688219;28;4498;-43
2022/07/10 01:39:55;;;;;;;3.83;1.67;;;;;;;11.96;98.67;101788.94;689894;28;1064;-43